Time;durP1;ratioP1;P1;durP2;ratioP2;P2;SDS_P1;SDS_P2;PMS_P1;PMS_P2;Temp;Humidity;BMP_temperature;BMP_pressure;BME280_temperature;BME280_humidity;BME280_pressure;Samples;Min_cycle;Max_cycle;Signal;HPM_P1;HPM_P2
2024/04/03 00:00:15;;;;;;;24.25;19.35;;;13.60;99.90;;;;;;4972745;28;20227;-73
2024/04/03 00:02:44;;;;;;;17.50;13.60;;;13.60;99.90;;;;;;4973606;28;20563;-73
2024/04/03 00:05:11;;;;;;;9.82;7.13;;;13.60;99.90;;;;;;4976413;28;20306;-74
2024/04/03 00:07:37;;;;;;;20.70;16.50;;;13.60;99.90;;;;;;4992092;28;20318;-73
2024/04/03 00:10:04;;;;;;;7.57;5.83;;;13.60;99.90;;;;;;4992776;28;20549;-73
2024/04/03 00:12:34;;;;;;;12.67;9.87;;;13.60;99.90;;;;;;4982886;28;20474;-73
2024/04/03 00:15:01;;;;;;;33.83;27.70;;;13.60;99.90;;;;;;4993538;28;20470;-73
2024/04/03 00:17:34;;;;;;;9.40;8.03;;;13.60;99.90;;;;;;4995872;28;20480;-73
2024/04/03 00:20:00;;;;;;;6.77;5.80;;;13.60;99.90;;;;;;4988321;28;20474;-73
2024/04/03 00:22:27;;;;;;;11.47;9.80;;;13.60;99.90;;;;;;4976427;28;20477;-73
2024/04/03 00:24:53;;;;;;;8.50;6.87;;;13.50;99.90;;;;;;4977234;28;20492;-73
2024/04/03 00:27:20;;;;;;;9.25;8.35;;;13.60;99.90;;;;;;4976255;28;20623;-73
2024/04/03 00:29:46;;;;;;;46.00;30.30;;;13.50;99.90;;;;;;4977008;28;20566;-73
2024/04/03 00:32:15;;;;;;;43.77;27.57;;;13.50;99.90;;;;;;4976671;28;20493;-73
2024/04/03 00:34:41;;;;;;;11.57;9.13;;;13.50;99.90;;;;;;4976490;28;20463;-73
2024/04/03 00:37:09;;;;;;;21.05;13.18;;;13.50;99.90;;;;;;4976901;28;20470;-73
2024/04/03 00:39:34;;;;;;;14.77;12.98;;;13.50;99.90;;;;;;4975901;28;20219;-73
2024/04/03 00:42:02;;;;;;;20.00;15.00;;;13.50;99.90;;;;;;4976604;28;20226;-73
2024/04/03 00:44:28;;;;;;;11.50;10.23;;;13.40;99.90;;;;;;4976064;28;20815;-73
2024/04/03 00:46:55;;;;;;;15.20;12.00;;;13.40;99.90;;;;;;4976224;28;20470;-73
2024/04/03 00:49:22;;;;;;;5.78;4.55;;;13.50;99.90;;;;;;4975892;28;20489;-73
2024/04/03 00:51:50;;;;;;;6.97;6.30;;;13.50;99.90;;;;;;4997859;28;20226;-73
2024/04/03 00:54:17;;;;;;;7.27;5.83;;;13.50;99.90;;;;;;4990465;28;20479;-74
2024/04/03 00:56:45;;;;;;;7.87;6.53;;;13.40;99.90;;;;;;4975981;28;20485;-73
2024/04/03 00:59:12;;;;;;;13.50;11.97;;;13.40;99.90;;;;;;4976222;28;21000;-74
2024/04/03 01:01:39;;;;;;;11.45;5.32;;;13.40;99.90;;;;;;4975911;28;20471;-74
2024/04/03 01:04:04;;;;;;;12.65;10.50;;;13.30;99.90;;;;;;4976222;28;20223;-73
2024/04/03 01:06:33;;;;;;;3.97;3.60;;;13.30;99.90;;;;;;4989869;28;20569;-74
2024/04/03 01:08:59;;;;;;;25.25;19.08;;;13.30;99.90;;;;;;4995624;28;20476;-74
2024/04/03 01:11:26;;;;;;;6.80;5.77;;;13.30;99.90;;;;;;4993764;28;20227;-74
2024/04/03 01:13:55;;;;;;;17.83;12.93;;;13.20;99.90;;;;;;4987878;28;20532;-74
2024/04/03 01:16:22;;;;;;;17.25;14.50;;;13.20;99.90;;;;;;4994488;28;20226;-74
2024/04/03 01:18:47;;;;;;;12.88;10.05;;;13.20;99.90;;;;;;4994780;28;20221;-74
2024/04/03 01:21:14;;;;;;;23.27;17.23;;;13.20;99.90;;;;;;4995161;28;20218;-73
2024/04/03 01:23:42;;;;;;;17.05;13.88;;;13.20;99.90;;;;;;4994873;28;20454;-74
2024/04/03 01:26:10;;;;;;;8.02;5.88;;;13.20;99.90;;;;;;4995222;28;20222;-73
2024/04/03 01:28:36;;;;;;;4.65;3.70;;;13.20;99.90;;;;;;4994574;28;20234;-74
2024/04/03 01:31:03;;;;;;;5.60;5.10;;;13.20;99.90;;;;;;4995336;28;20227;-73
2024/04/03 01:33:32;;;;;;;16.17;9.75;;;13.20;99.90;;;;;;4993301;28;20481;-73
2024/04/03 01:36:00;;;;;;;12.98;9.60;;;13.20;99.90;;;;;;4974237;28;20847;-73
2024/04/03 01:38:28;;;;;;;32.28;24.63;;;13.20;99.90;;;;;;4974524;28;20262;-75
2024/04/03 01:40:55;;;;;;;13.93;10.07;;;13.20;99.90;;;;;;4975665;28;20227;-73
2024/04/03 01:43:22;;;;;;;9.38;7.60;;;13.20;99.90;;;;;;4975474;28;20821;-73
2024/04/03 01:45:56;;;;;;;10.35;7.43;;;13.10;99.90;;;;;;4975112;28;20617;-74
2024/04/03 01:48:22;;;;;;;11.65;8.13;;;13.10;99.90;;;;;;4975694;28;20573;-73
2024/04/03 01:50:49;;;;;;;6.53;5.30;;;13.10;99.90;;;;;;4974721;28;20278;-73
2024/04/03 01:53:15;;;;;;;13.77;12.10;;;13.20;99.90;;;;;;4975493;28;20815;-74
2024/04/03 01:55:52;;;;;;;11.70;8.00;;;13.10;99.90;;;;;;4974840;28;20474;-74
2024/04/03 01:58:18;;;;;;;8.48;7.15;;;13.20;99.90;;;;;;4975298;28;20862;-73
2024/04/03 02:00:47;;;;;;;12.27;10.20;;;13.20;99.90;;;;;;4974611;28;20230;-73
2024/04/03 02:03:13;;;;;;;6.35;5.60;;;13.20;99.90;;;;;;4975248;28;20463;-74
2024/04/03 02:05:42;;;;;;;9.45;6.63;;;13.20;99.90;;;;;;4974519;28;20250;-74
2024/04/03 02:08:08;;;;;;;4.63;4.22;;;13.30;99.90;;;;;;4974988;28;20549;-74
2024/04/03 02:10:35;;;;;;;7.10;6.40;;;13.30;99.90;;;;;;4974690;28;20631;-74
2024/04/03 02:13:01;;;;;;;37.95;25.77;;;13.30;99.90;;;;;;4974858;28;20692;-74
2024/04/03 02:15:28;;;;;;;11.77;8.33;;;13.30;99.90;;;;;;4974640;28;20224;-74
2024/04/03 02:17:56;;;;;;;50.05;39.67;;;13.40;99.90;;;;;;4974953;28;20474;-75
2024/04/03 02:20:23;;;;;;;5.57;5.18;;;13.40;99.90;;;;;;4974782;28;20219;-74
2024/04/03 02:22:49;;;;;;;11.25;10.05;;;13.40;99.90;;;;;;4974382;28;20540;-74
2024/04/03 02:25:18;;;;;;;36.00;24.33;;;13.40;99.90;;;;;;4974933;28;20219;-74
2024/04/03 02:27:44;;;;;;;13.15;10.15;;;13.40;99.90;;;;;;4974178;28;20478;-74
2024/04/03 02:30:12;;;;;;;27.40;22.90;;;13.50;99.90;;;;;;4974196;28;20563;-74
2024/04/03 02:32:38;;;;;;;18.10;14.23;;;13.50;99.90;;;;;;4974230;28;20689;-73
2024/04/03 02:35:07;;;;;;;23.73;17.70;;;13.60;99.90;;;;;;4974795;28;20969;-74
2024/04/03 02:37:33;;;;;;;21.60;17.10;;;13.60;99.90;;;;;;4973565;28;20685;-75
2024/04/03 02:40:01;;;;;;;14.77;10.60;;;13.60;99.90;;;;;;4974393;28;20296;-75
2024/04/03 02:42:27;;;;;;;10.33;7.90;;;13.70;99.90;;;;;;4974642;28;20875;-74
2024/04/03 02:44:55;;;;;;;8.93;8.00;;;13.70;99.90;;;;;;4974111;28;20652;-74
2024/04/03 02:47:21;;;;;;;13.50;12.20;;;13.70;99.90;;;;;;4973607;28;20229;-74
2024/04/03 02:49:48;;;;;;;7.13;6.43;;;13.70;99.90;;;;;;4973701;28;20227;-73
2024/04/03 02:52:15;;;;;;;22.30;17.95;;;13.70;99.90;;;;;;4974355;28;20474;-74
2024/04/03 02:54:42;;;;;;;45.10;28.57;;;13.70;99.90;;;;;;4973664;28;20242;-74
2024/04/03 02:57:08;;;;;;;11.35;9.70;;;13.70;99.90;;;;;;4974080;28;20471;-74
2024/04/03 02:59:36;;;;;;;17.83;14.50;;;13.80;99.90;;;;;;4973941;28;20307;-75
2024/04/03 03:02:02;;;;;;;12.00;8.60;;;13.70;99.90;;;;;;4974147;28;20477;-74
2024/04/03 03:04:29;;;;;;;7.43;6.33;;;13.70;99.90;;;;;;4973773;28;20689;-74
2024/04/03 03:06:55;;;;;;;23.27;17.03;;;13.70;99.90;;;;;;4973947;28;20963;-74
2024/04/03 03:09:25;;;;;;;9.87;7.27;;;13.70;99.90;;;;;;4973884;28;20475;-73
2024/04/03 03:11:52;;;;;;;12.50;10.27;;;13.60;99.90;;;;;;4973656;28;20980;-74
2024/04/03 03:14:19;;;;;;;10.37;5.90;;;13.70;99.90;;;;;;4973821;28;20478;-74
2024/04/03 03:16:45;;;;;;;9.90;6.90;;;13.70;99.90;;;;;;4972730;28;20624;-74
2024/04/03 03:19:12;;;;;;;7.77;5.53;;;13.60;99.90;;;;;;4973889;28;20214;-73
2024/04/03 03:21:38;;;;;;;6.85;5.90;;;13.60;99.90;;;;;;4973443;28;20470;-74
2024/04/03 03:24:05;;;;;;;13.60;8.33;;;13.60;99.90;;;;;;4973613;28;20219;-74
2024/04/03 03:26:32;;;;;;;8.35;6.80;;;13.60;99.90;;;;;;4973824;28;20471;-74
2024/04/03 03:28:59;;;;;;;8.80;7.22;;;13.50;99.90;;;;;;4973221;28;20219;-74
2024/04/03 03:31:27;;;;;;;9.35;7.63;;;13.40;99.90;;;;;;4973428;28;20235;-74
2024/04/03 03:33:54;;;;;;;11.55;9.52;;;13.40;99.90;;;;;;4973418;28;20233;-76
2024/04/03 03:36:20;;;;;;;7.68;6.95;;;13.30;99.90;;;;;;4973501;28;20238;-73
2024/04/03 03:38:47;;;;;;;6.95;6.25;;;13.30;99.90;;;;;;4973129;28;20302;-73
2024/04/03 03:41:14;;;;;;;6.32;5.72;;;13.20;99.90;;;;;;4973752;28;20227;-73
2024/04/03 03:43:41;;;;;;;12.82;8.88;;;13.10;99.90;;;;;;4973067;28;20570;-73
2024/04/03 03:46:08;;;;;;;9.38;7.50;;;13.00;99.90;;;;;;4973371;28;20219;-73
2024/04/03 03:54:07;;;;;;;23.98;18.48;;;12.90;99.90;;;;;;4973918;28;20226;-74
2024/04/03 03:56:34;;;;;;;36.17;23.65;;;12.90;99.90;;;;;;4972806;28;20232;-74
2024/04/03 03:59:02;;;;;;;7.47;6.40;;;12.80;99.90;;;;;;4973495;28;20220;-72
2024/04/03 04:01:28;;;;;;;6.80;4.20;;;12.80;99.90;;;;;;4973016;28;20248;-74
2024/04/03 04:03:55;;;;;;;4.83;3.80;;;12.80;99.90;;;;;;4973590;28;20241;-74
2024/04/03 04:06:21;;;;;;;4.75;3.90;;;12.80;99.90;;;;;;4972749;28;20809;-73
2024/04/03 04:08:48;;;;;;;3.97;3.60;;;12.80;99.90;;;;;;4973423;28;20251;-73
2024/04/03 04:11:14;;;;;;;5.22;4.13;;;12.80;99.90;;;;;;4973065;28;20466;-73
2024/04/03 04:13:40;;;;;;;8.30;6.70;;;12.80;99.90;;;;;;4972736;28;20591;-73
2024/04/03 04:16:11;;;;;;;4.60;4.20;;;12.80;99.90;;;;;;4973047;28;20481;-72
2024/04/03 04:18:37;;;;;;;6.15;3.97;;;12.70;99.90;;;;;;4972928;28;20235;-72
2024/04/03 04:21:04;;;;;;;4.25;3.80;;;12.70;99.90;;;;;;4973348;28;20243;-73
2024/04/03 04:23:31;;;;;;;8.10;6.25;;;12.70;99.90;;;;;;4972648;28;20243;-73
2024/04/03 04:26:01;;;;;;;7.40;5.68;;;12.80;99.90;;;;;;4973201;28;20223;-72
2024/04/03 04:28:28;;;;;;;5.28;4.45;;;12.70;99.90;;;;;;4972463;28;20219;-72
2024/04/03 04:30:58;;;;;;;6.93;5.60;;;12.80;99.90;;;;;;4973064;28;20223;-73
2024/04/03 04:33:26;;;;;;;6.80;6.20;;;12.80;99.90;;;;;;4972616;28;20231;-73
2024/04/03 04:35:53;;;;;;;5.18;4.68;;;12.70;99.90;;;;;;4973216;28;20226;-72
2024/04/03 04:38:20;;;;;;;8.35;6.88;;;12.70;99.90;;;;;;4972852;28;20483;-72
2024/04/03 04:40:54;;;;;;;5.72;4.88;;;12.70;99.90;;;;;;4972696;28;20223;-73
2024/04/03 04:43:21;;;;;;;5.43;4.82;;;12.70;99.90;;;;;;4973113;28;20219;-72
2024/04/03 04:45:55;;;;;;;4.47;4.10;;;12.70;99.90;;;;;;4972553;28;20227;-72
2024/04/03 04:48:22;;;;;;;10.88;6.93;;;12.70;99.90;;;;;;4972737;28;20223;-72
2024/04/03 04:50:52;;;;;;;18.45;10.77;;;12.70;99.90;;;;;;4972337;28;20224;-73
2024/04/03 04:53:19;;;;;;;5.40;4.65;;;12.70;99.90;;;;;;4972897;28;20572;-72
2024/04/03 04:55:55;;;;;;;8.27;6.85;;;12.70;99.90;;;;;;4972394;28;20242;-74
2024/04/03 04:58:23;;;;;;;8.15;4.65;;;12.60;99.90;;;;;;4972705;28;20227;-73
2024/04/03 05:00:50;;;;;;;6.47;5.20;;;12.70;99.90;;;;;;4973302;28;20227;-73
2024/04/03 05:03:17;;;;;;;26.95;19.73;;;12.70;99.90;;;;;;4976203;28;20224;-72
2024/04/03 05:05:43;;;;;;;48.42;26.13;;;12.60;99.90;;;;;;4975511;28;20246;-73
2024/04/03 05:08:11;;;;;;;9.13;7.27;;;12.60;99.90;;;;;;4976260;28;20227;-73
2024/04/03 05:10:37;;;;;;;7.60;4.38;;;12.60;99.90;;;;;;4975660;28;20518;-73
2024/04/03 05:13:04;;;;;;;8.13;5.80;;;12.60;99.90;;;;;;4976399;28;20616;-73
2024/04/03 05:15:31;;;;;;;22.67;11.05;;;12.60;99.90;;;;;;4975572;28;20310;-74
2024/04/03 05:17:59;;;;;;;8.25;6.32;;;12.60;99.90;;;;;;4975873;28;20233;-72
2024/04/03 05:20:25;;;;;;;6.30;5.70;;;12.60;99.90;;;;;;4976034;28;20226;-72
2024/04/03 05:22:52;;;;;;;10.80;9.70;;;12.60;99.90;;;;;;4975531;28;20258;-73
2024/04/03 05:25:19;;;;;;;6.95;6.03;;;12.60;99.90;;;;;;4975630;28;20477;-72
2024/04/03 05:27:46;;;;;;;8.13;7.22;;;12.60;99.90;;;;;;4975441;28;20255;-73
2024/04/03 05:30:12;;;;;;;5.68;5.18;;;12.60;99.90;;;;;;4975644;28;20238;-73
2024/04/03 05:32:39;;;;;;;5.90;5.32;;;12.70;99.90;;;;;;4975329;28;20234;-72
2024/04/03 05:35:05;;;;;;;4.25;3.47;;;12.70;99.90;;;;;;4975772;28;20233;-73
2024/04/03 05:37:32;;;;;;;6.15;4.85;;;12.70;99.90;;;;;;4975215;28;20227;-74
2024/04/03 05:39:58;;;;;;;6.28;5.68;;;12.80;99.90;;;;;;4975582;28;20234;-73
2024/04/03 05:42:29;;;;;;;10.87;7.17;;;12.80;99.90;;;;;;4975547;28;20215;-72
2024/04/03 05:44:55;;;;;;;10.35;7.28;;;12.80;99.90;;;;;;4975116;28;20470;-72
2024/04/03 05:47:22;;;;;;;6.10;5.53;;;12.80;99.90;;;;;;4975409;28;20231;-72
2024/04/03 05:49:51;;;;;;;5.80;4.13;;;12.80;99.90;;;;;;4975248;28;20800;-71
2024/04/03 05:52:18;;;;;;;8.20;5.95;;;12.90;99.90;;;;;;4975442;28;20231;-72
2024/04/03 05:54:46;;;;;;;8.88;7.15;;;12.90;99.90;;;;;;4975162;28;20223;-72
2024/04/03 05:57:13;;;;;;;7.25;6.55;;;12.90;99.90;;;;;;4975258;28;20230;-73
2024/04/03 05:59:41;;;;;;;8.23;7.10;;;12.90;99.90;;;;;;4974757;28;20250;-73
2024/04/03 06:02:07;;;;;;;10.00;6.85;;;12.90;99.90;;;;;;4975295;28;20223;-73
2024/04/03 06:04:33;;;;;;;12.30;6.80;;;12.90;99.90;;;;;;4974385;28;20238;-73
2024/04/03 06:07:02;;;;;;;8.37;6.70;;;12.90;99.90;;;;;;4975063;28;20227;-73
2024/04/03 06:09:28;;;;;;;8.43;6.40;;;13.00;99.90;;;;;;4975282;28;20482;-72
2024/04/03 06:11:55;;;;;;;8.88;7.93;;;13.00;99.90;;;;;;4973941;28;20223;-73
2024/04/03 06:14:24;;;;;;;9.70;8.43;;;13.00;99.90;;;;;;4974406;28;20227;-72
2024/04/03 06:16:52;;;;;;;10.25;8.38;;;13.00;99.90;;;;;;4974458;28;20231;-72
2024/04/03 06:19:18;;;;;;;19.08;14.05;;;13.10;99.90;;;;;;4975002;28;20219;-74
2024/04/03 06:21:45;;;;;;;18.27;12.18;;;13.10;99.90;;;;;;4974445;28;20220;-74
2024/04/03 06:24:11;;;;;;;9.65;8.07;;;13.10;99.90;;;;;;4975057;28;20366;-74
2024/04/03 06:26:38;;;;;;;7.63;6.80;;;13.10;99.90;;;;;;4974241;28;20284;-73
2024/04/03 06:29:04;;;;;;;7.78;6.05;;;13.10;99.90;;;;;;4974507;28;20953;-74
2024/04/03 06:31:32;;;;;;;7.13;5.95;;;13.20;99.90;;;;;;4974658;28;20254;-72
2024/04/03 06:34:00;;;;;;;8.27;6.28;;;13.20;99.90;;;;;;4974055;28;20227;-72
2024/04/03 06:36:30;;;;;;;10.35;8.10;;;13.20;99.90;;;;;;4974526;28;20240;-73
2024/04/03 06:38:55;;;;;;;11.90;10.60;;;13.20;99.90;;;;;;4974080;28;20230;-72
2024/04/03 06:41:22;;;;;;;6.10;5.60;;;13.20;99.90;;;;;;4974488;28;20219;-73
2024/04/03 06:43:48;;;;;;;5.68;5.18;;;13.20;99.90;;;;;;4973768;28;20855;-73
2024/04/03 06:46:16;;;;;;;6.63;5.50;;;13.20;99.90;;;;;;4974312;28;20223;-73
2024/04/03 06:48:44;;;;;;;5.75;4.82;;;13.20;99.90;;;;;;4974016;28;20992;-72
2024/04/03 06:51:13;;;;;;;5.47;4.97;;;13.30;99.90;;;;;;4974276;28;20306;-72
2024/04/03 06:53:39;;;;;;;5.22;4.72;;;13.30;99.90;;;;;;4974010;28;20231;-72
2024/04/03 06:56:06;;;;;;;4.83;4.00;;;13.30;99.90;;;;;;4974702;28;20225;-73
2024/04/03 06:58:37;;;;;;;5.03;4.53;;;13.40;99.90;;;;;;4974493;28;20463;-73
2024/04/03 07:01:05;;;;;;;7.10;5.07;;;13.40;99.90;;;;;;4973942;28;20545;-72
2024/04/03 07:03:31;;;;;;;5.82;5.25;;;13.30;99.90;;;;;;4974236;28;20225;-72
2024/04/03 07:05:58;;;;;;;7.07;5.57;;;13.40;99.90;;;;;;4973732;28;20314;-72
2024/04/03 07:08:25;;;;;;;5.18;4.68;;;13.30;99.90;;;;;;4973928;28;20471;-73
2024/04/03 07:10:52;;;;;;;6.25;4.90;;;13.30;99.90;;;;;;4973343;28;20286;-72
2024/04/03 07:13:18;;;;;;;6.63;4.60;;;13.30;99.90;;;;;;4974224;28;20227;-72
2024/04/03 07:15:48;;;;;;;6.83;5.40;;;13.30;99.90;;;;;;4973314;28;20223;-73
2024/04/03 07:18:14;;;;;;;7.90;5.32;;;13.30;99.90;;;;;;4973871;28;20467;-73
2024/04/03 07:20:41;;;;;;;7.50;6.05;;;13.20;99.90;;;;;;4973883;28;20281;-73
2024/04/03 07:23:08;;;;;;;7.43;6.55;;;13.20;99.90;;;;;;4973550;28;20231;-73
2024/04/03 07:25:37;;;;;;;7.50;6.13;;;13.20;99.90;;;;;;4973635;28;20282;-73
2024/04/03 07:28:10;;;;;;;6.03;5.35;;;13.20;99.90;;;;;;4973339;28;21675;-73
2024/04/03 07:30:37;;;;;;;6.28;5.68;;;13.20;99.90;;;;;;4973366;28;20234;-73
2024/04/03 07:33:04;;;;;;;9.32;5.65;;;13.20;99.90;;;;;;4973322;28;20231;-74
2024/04/03 07:35:31;;;;;;;5.47;4.60;;;13.20;99.90;;;;;;4973766;28;20278;-73
2024/04/03 07:37:57;;;;;;;5.53;5.03;;;13.20;99.90;;;;;;4973046;28;20242;-74
2024/04/03 07:40:24;;;;;;;7.55;4.95;;;13.20;99.90;;;;;;4973549;28;20227;-73
2024/04/03 07:42:51;;;;;;;7.18;6.53;;;13.20;99.90;;;;;;4973137;28;20231;-73
2024/04/03 07:45:18;;;;;;;6.15;5.55;;;13.20;99.90;;;;;;4973604;28;20589;-74
2024/04/03 07:47:47;;;;;;;5.65;5.15;;;13.30;99.90;;;;;;4973297;28;20235;-74
2024/04/03 07:50:14;;;;;;;6.90;5.63;;;13.20;99.90;;;;;;4973356;28;20294;-73
2024/04/03 07:52:40;;;;;;;5.60;5.07;;;13.20;99.90;;;;;;4973327;28;21168;-73
2024/04/03 07:55:08;;;;;;;5.22;4.78;;;13.20;99.90;;;;;;4972965;28;20303;-73
2024/04/03 07:57:34;;;;;;;5.43;4.93;;;13.30;99.90;;;;;;4973327;28;20235;-73
2024/04/03 08:00:04;;;;;;;7.20;5.38;;;13.30;99.90;;;;;;4972997;28;20283;-74
2024/04/03 08:02:33;;;;;;;5.97;5.35;;;13.20;99.90;;;;;;4973335;28;20290;-73
2024/04/03 08:05:00;;;;;;;8.27;6.30;;;13.20;99.90;;;;;;4972739;28;20235;-75
2024/04/03 08:07:26;;;;;;;8.88;6.45;;;13.20;99.90;;;;;;4973241;28;20239;-74
2024/04/03 08:09:53;;;;;;;6.60;5.93;;;13.20;99.90;;;;;;4972841;28;20227;-74
2024/04/03 08:12:21;;;;;;;7.00;6.30;;;13.30;99.90;;;;;;4973050;28;20490;-74
2024/04/03 08:14:48;;;;;;;8.32;5.53;;;13.20;99.90;;;;;;4973357;28;20223;-74
2024/04/03 08:17:16;;;;;;;6.55;5.88;;;13.20;99.90;;;;;;4972861;28;20238;-74
2024/04/03 08:19:43;;;;;;;7.20;6.50;;;13.20;99.90;;;;;;4973137;28;20227;-72
2024/04/03 08:22:09;;;;;;;7.05;6.20;;;13.20;99.90;;;;;;4972594;28;20223;-74
2024/04/03 08:24:37;;;;;;;8.30;6.33;;;13.20;99.90;;;;;;4973101;28;20226;-73
2024/04/03 08:27:05;;;;;;;7.35;5.88;;;13.30;99.90;;;;;;4972790;28;20470;-74
2024/04/03 08:29:37;;;;;;;7.73;6.40;;;13.30;99.90;;;;;;4972984;28;20662;-74
2024/04/03 08:32:03;;;;;;;8.90;6.28;;;13.30;99.90;;;;;;4972554;28;20479;-73
2024/04/03 08:34:31;;;;;;;6.70;6.10;;;13.40;99.90;;;;;;4973126;28;20692;-74
2024/04/03 08:36:57;;;;;;;7.95;7.25;;;13.40;99.90;;;;;;4975158;28;20681;-74
2024/04/03 08:39:24;;;;;;;9.07;8.27;;;13.40;99.90;;;;;;4976810;28;20230;-73
2024/04/03 08:41:56;;;;;;;8.00;7.30;;;13.50;99.90;;;;;;4976825;28;20474;-73
2024/04/03 08:44:23;;;;;;;10.50;6.70;;;13.60;99.90;;;;;;4976220;28;20713;-73
2024/04/03 08:46:56;;;;;;;6.07;5.20;;;13.60;99.90;;;;;;4976434;28;20466;-73
2024/04/03 08:49:25;;;;;;;6.70;6.03;;;13.70;99.90;;;;;;4976151;28;20967;-73
2024/04/03 08:51:59;;;;;;;5.77;5.27;;;13.70;99.90;;;;;;4976382;28;20232;-73
2024/04/03 08:54:27;;;;;;;6.40;5.50;;;13.80;99.90;;;;;;4976308;28;20932;-73
2024/04/03 08:56:53;;;;;;;6.20;5.80;;;13.90;99.90;;;;;;4976419;28;20470;-73
2024/04/03 08:59:21;;;;;;;9.77;5.87;;;13.90;99.90;;;;;;4975608;28;20466;-73
2024/04/03 09:01:48;;;;;;;7.87;7.07;;;14.10;99.90;;;;;;4976306;28;20467;-74
2024/04/03 09:04:16;;;;;;;11.53;9.10;;;14.10;99.90;;;;;;4975935;28;20474;-73
2024/04/03 09:06:42;;;;;;;7.10;6.40;;;14.10;99.90;;;;;;4975886;28;20486;-73
2024/04/03 09:09:21;;;;;;;6.80;4.57;;;14.10;99.90;;;;;;4975791;28;20466;-73
2024/04/03 09:11:50;;;;;;;6.27;5.67;;;14.20;99.90;;;;;;4976109;28;20479;-73
2024/04/03 09:14:23;;;;;;;11.17;9.97;;;14.30;99.90;;;;;;4975433;28;20466;-73
2024/04/03 09:16:49;;;;;;;14.77;10.70;;;14.30;99.90;;;;;;4975940;28;20474;-73
2024/04/03 09:19:17;;;;;;;9.40;8.13;;;14.40;99.90;;;;;;4975910;28;20463;-73
2024/04/03 09:21:43;;;;;;;7.93;6.10;;;14.40;99.90;;;;;;4975839;28;20838;-73
2024/04/03 09:24:10;;;;;;;6.23;5.40;;;14.50;99.90;;;;;;4975474;28;20474;-74
2024/04/03 09:26:44;;;;;;;10.90;7.80;;;14.60;99.90;;;;;;4975807;28;20485;-74
2024/04/03 09:29:15;;;;;;;7.67;5.70;;;14.50;99.90;;;;;;4975399;28;20462;-74
2024/04/03 09:31:41;;;;;;;7.00;5.70;;;14.60;99.90;;;;;;4975755;28;20554;-74
2024/04/03 09:34:09;;;;;;;6.53;5.93;;;14.60;99.90;;;;;;4975255;28;20491;-74
2024/04/03 09:36:35;;;;;;;5.33;4.93;;;14.60;99.90;;;;;;4975481;28;20474;-73
2024/04/03 09:39:03;;;;;;;9.40;7.90;;;14.70;99.90;;;;;;4975555;28;20477;-74
2024/04/03 09:41:31;;;;;;;7.50;6.80;;;14.70;99.90;;;;;;4975620;28;20513;-73
2024/04/03 09:44:02;;;;;;;7.90;5.97;;;14.70;99.90;;;;;;4975482;28;20471;-75
2024/04/03 09:46:40;;;;;;;10.37;7.17;;;14.80;99.90;;;;;;4973554;28;20567;-74
2024/04/03 09:49:09;;;;;;;6.50;5.70;;;14.80;99.90;;;;;;4974033;28;20938;-74
2024/04/03 09:51:35;;;;;;;6.10;5.10;;;14.80;99.90;;;;;;4975595;28;20467;-74
2024/04/03 09:54:03;;;;;;;12.73;10.90;;;14.90;99.90;;;;;;4975434;28;21282;-73
2024/04/03 09:56:29;;;;;;;8.37;6.63;;;14.90;99.90;;;;;;4974738;28;21015;-74
2024/04/03 09:58:56;;;;;;;6.73;5.87;;;15.00;99.90;;;;;;4975377;28;20474;-74
2024/04/03 10:01:28;;;;;;;10.23;5.83;;;15.00;99.90;;;;;;4974465;28;20467;-74
2024/04/03 10:04:02;;;;;;;8.17;7.33;;;15.10;99.90;;;;;;4975111;28;20479;-73
2024/04/03 10:06:28;;;;;;;7.03;6.23;;;15.10;99.90;;;;;;4974082;28;20471;-73
2024/04/03 10:08:55;;;;;;;6.27;5.67;;;15.20;99.90;;;;;;4974919;28;20467;-73
2024/04/03 10:11:21;;;;;;;4.53;4.23;;;15.20;99.90;;;;;;4974622;28;20485;-73
2024/04/03 10:13:51;;;;;;;5.60;5.07;;;15.30;99.90;;;;;;4975183;28;20956;-74
2024/04/03 10:16:17;;;;;;;5.30;4.80;;;15.30;99.90;;;;;;4973880;28;20475;-74
2024/04/03 10:18:51;;;;;;;9.77;6.00;;;15.40;99.90;;;;;;4974763;28;20550;-75
2024/04/03 10:21:19;;;;;;;9.13;6.23;;;15.50;99.90;;;;;;4974337;28;20553;-75
2024/04/03 10:23:47;;;;;;;6.83;6.13;;;15.50;99.90;;;;;;4974788;28;20466;-73
2024/04/03 10:26:31;;;;;;;6.20;4.43;;;15.50;99.90;;;;;;4974605;28;20537;-75
2024/04/03 10:29:03;;;;;;;7.50;6.73;;;15.60;99.90;;;;;;4973520;28;20470;-74
2024/04/03 10:31:29;;;;;;;7.33;6.00;;;15.60;99.90;;;;;;4974177;28;20467;-75
2024/04/03 10:33:58;;;;;;;5.30;4.80;;;15.70;99.90;;;;;;4974539;28;20525;-74
2024/04/03 10:36:25;;;;;;;8.33;6.80;;;15.70;99.90;;;;;;4974010;28;20486;-74
2024/04/03 10:38:52;;;;;;;7.03;5.43;;;15.70;99.90;;;;;;4974774;28;20517;-74
2024/04/03 10:41:17;;;;;;;10.73;4.90;;;15.70;99.90;;;;;;4973895;28;20987;-73
2024/04/03 10:43:45;;;;;;;5.83;5.37;;;15.80;99.90;;;;;;4974393;28;20467;-73
2024/04/03 10:46:13;;;;;;;6.63;5.80;;;15.80;99.90;;;;;;4973797;28;20486;-74
2024/04/03 10:48:41;;;;;;;5.80;4.83;;;15.80;99.90;;;;;;4974304;28;20549;-73
2024/04/03 10:51:08;;;;;;;8.77;6.73;;;15.80;99.90;;;;;;4974267;28;20805;-73
2024/04/03 10:53:35;;;;;;;7.20;6.50;;;15.80;99.90;;;;;;4974155;28;20475;-74
2024/04/03 10:56:01;;;;;;;5.90;5.10;;;15.90;99.90;;;;;;4974178;28;20475;-73
2024/04/03 10:58:29;;;;;;;7.50;4.93;;;15.90;99.90;;;;;;4973092;28;20824;-74
2024/04/03 11:00:55;;;;;;;8.60;6.00;;;15.90;99.90;;;;;;4974142;28;20474;-74
2024/04/03 11:03:24;;;;;;;7.00;6.30;;;15.90;99.90;;;;;;4973621;28;20491;-73
2024/04/03 11:05:51;;;;;;;8.57;7.77;;;15.90;99.90;;;;;;4973946;28;20475;-74
2024/04/03 11:08:21;;;;;;;6.47;5.77;;;15.80;99.90;;;;;;4973613;28;20522;-74
2024/04/03 11:10:46;;;;;;;8.97;7.73;;;15.80;99.90;;;;;;4973894;28;20506;-73
2024/04/03 11:13:14;;;;;;;12.07;9.90;;;15.90;99.90;;;;;;4973282;28;20482;-75
2024/04/03 11:15:40;;;;;;;8.30;6.67;;;15.90;99.90;;;;;;4974026;28;20479;-73
2024/04/03 11:18:07;;;;;;;14.00;10.10;;;15.80;99.90;;;;;;4973761;28;20482;-74
2024/04/03 11:20:35;;;;;;;7.43;6.70;;;15.80;99.90;;;;;;4973463;28;20806;-73
2024/04/03 11:23:03;;;;;;;7.90;7.10;;;15.80;99.90;;;;;;4973736;28;20487;-73
2024/04/03 11:25:31;;;;;;;8.50;7.70;;;15.80;99.90;;;;;;4973187;28;20474;-73
2024/04/03 11:28:00;;;;;;;6.93;5.90;;;15.80;99.90;;;;;;4974007;28;20530;-74
2024/04/03 11:30:26;;;;;;;7.63;6.90;;;15.80;99.90;;;;;;4973037;28;20558;-73
2024/04/03 11:32:54;;;;;;;10.60;6.50;;;15.70;99.90;;;;;;4973931;28;20478;-74
2024/04/03 11:35:20;;;;;;;6.53;5.90;;;15.70;99.90;;;;;;4973205;28;20481;-75
2024/04/03 11:37:47;;;;;;;8.87;6.77;;;15.70;99.90;;;;;;4973514;28;20549;-73
2024/04/03 11:40:13;;;;;;;9.70;7.87;;;15.70;99.90;;;;;;4973697;28;20493;-73
2024/04/03 11:42:43;;;;;;;7.43;6.70;;;15.60;99.90;;;;;;4973484;28;20486;-73
2024/04/03 11:45:09;;;;;;;8.33;6.60;;;15.60;99.90;;;;;;4973350;28;20505;-74
2024/04/03 11:47:37;;;;;;;11.00;9.67;;;15.50;99.90;;;;;;4973227;28;20495;-74
2024/04/03 11:50:04;;;;;;;9.03;6.40;;;15.50;99.90;;;;;;4973410;28;20477;-74
2024/04/03 11:52:31;;;;;;;10.50;8.10;;;15.40;99.90;;;;;;4972891;28;20965;-74
2024/04/03 11:54:57;;;;;;;8.03;7.33;;;15.40;99.90;;;;;;4973568;28;20813;-74
2024/04/03 11:57:24;;;;;;;7.43;6.83;;;15.30;99.90;;;;;;4972871;28;21032;-74
2024/04/03 11:59:51;;;;;;;7.70;7.03;;;15.30;99.90;;;;;;4973364;28;20488;-74
2024/04/03 12:02:18;;;;;;;8.07;7.23;;;15.30;99.90;;;;;;4972779;28;20475;-74
2024/04/03 12:04:44;;;;;;;8.93;7.20;;;15.20;99.90;;;;;;4973084;28;20486;-73
2024/04/03 12:07:13;;;;;;;9.93;7.77;;;15.20;99.90;;;;;;4973043;28;20502;-74
2024/04/03 12:09:40;;;;;;;7.07;6.57;;;15.10;99.90;;;;;;4972691;28;20475;-74
2024/04/03 12:12:08;;;;;;;7.40;6.70;;;15.10;99.90;;;;;;4976038;28;20475;-74
2024/04/03 12:14:34;;;;;;;10.70;8.30;;;15.10;99.90;;;;;;4976825;28;20482;-73
2024/04/03 12:17:04;;;;;;;8.40;7.70;;;15.00;99.90;;;;;;4977085;28;20828;-73
2024/04/03 12:19:44;;;;;;;6.57;5.97;;;15.00;99.90;;;;;;4976686;28;20498;-73
2024/04/03 12:22:12;;;;;;;9.00;8.10;;;15.10;99.90;;;;;;4976790;28;20550;-74
2024/04/03 12:24:38;;;;;;;8.37;7.40;;;15.00;99.90;;;;;;4976354;28;20494;-73
2024/04/03 12:27:05;;;;;;;8.90;7.90;;;15.00;99.90;;;;;;4977182;28;20980;-73
2024/04/03 12:29:31;;;;;;;10.53;9.53;;;15.00;99.90;;;;;;4976351;28;20475;-73
2024/04/03 12:31:57;;;;;;;13.60;10.70;;;15.00;99.90;;;;;;4976727;28;20794;-74
2024/04/03 12:34:28;;;;;;;11.13;10.03;;;15.00;99.90;;;;;;4976238;28;20487;-74
2024/04/03 12:36:55;;;;;;;11.03;8.80;;;15.00;99.90;;;;;;4976626;28;20534;-74
2024/04/03 12:39:23;;;;;;;11.60;10.40;;;15.00;99.90;;;;;;4976216;28;20482;-74
2024/04/03 12:41:50;;;;;;;11.73;10.30;;;15.00;99.90;;;;;;4976908;28;20554;-74
2024/04/03 12:44:16;;;;;;;14.27;12.87;;;15.00;99.90;;;;;;4976367;28;20489;-74
2024/04/03 12:46:43;;;;;;;14.90;11.30;;;15.00;99.90;;;;;;4976411;28;20778;-73